createdAt,value
2019-04-23T00:02:48.897Z,74.20
2019-04-23T00:05:29.063Z,74.90
2019-04-23T00:07:56.137Z,75.30
2019-04-23T00:12:57.313Z,76.40
2019-04-23T00:15:45.271Z,77.00
2019-04-23T00:18:22.489Z,77.30
2019-04-23T00:20:50.288Z,77.70
2019-04-23T00:23:39.665Z,78.40
2019-04-23T00:26:12.484Z,79.10
2019-04-23T00:28:45.570Z,79.40
2019-04-23T00:31:18.440Z,80.70
2019-04-23T00:33:40.886Z,81.80
2019-04-23T00:36:19.712Z,82.50
2019-04-23T00:38:45.514Z,84.20
2019-04-23T00:41:16.590Z,85.20
2019-04-23T00:46:22.356Z,87.50
2019-04-23T00:48:57.957Z,89.20
2019-04-23T00:51:22.358Z,90.60
2019-04-23T00:53:51.872Z,91.10
2019-04-23T00:56:38.253Z,91.80
2019-04-23T00:58:55.203Z,92.60
2019-04-23T01:01:36.937Z,93.50
2019-04-23T01:04:02.347Z,94.40
2019-04-23T01:06:29.097Z,95.30
2019-04-23T01:09:02.235Z,96.10
2019-04-23T01:11:34.261Z,97.30
2019-04-23T01:14:08.261Z,98.20
2019-04-23T01:16:37.361Z,99.40
2019-04-23T01:19:20.727Z,99.90
2019-04-23T01:21:32.620Z,99.90
2019-04-23T01:24:26.990Z,99.90
2019-04-23T01:27:44.632Z,99.90
2019-04-23T01:32:36.760Z,99.90
2019-04-23T01:37:49.322Z,99.90
2019-04-23T01:40:26.561Z,99.90
2019-04-23T01:42:44.986Z,99.90
2019-04-23T01:45:26.000Z,99.90
2019-04-23T01:47:49.777Z,99.90
2019-04-23T01:58:07.043Z,99.90
2019-04-23T02:00:30.648Z,99.90
2019-04-23T02:03:15.464Z,99.90
2019-04-23T02:05:34.901Z,99.90
2019-04-23T02:10:48.765Z,99.90
2019-04-23T02:13:12.587Z,99.90
2019-04-23T02:15:42.414Z,99.90
2019-04-23T02:20:47.855Z,99.90
2019-04-23T02:23:32.211Z,99.90
2019-04-23T02:26:15.697Z,99.90
2019-04-23T02:28:44.685Z,99.90
2019-04-23T02:31:21.137Z,99.90
2019-04-23T02:36:24.597Z,99.90
2019-04-23T02:38:52.399Z,99.90
2019-04-23T02:43:33.421Z,99.90
2019-04-23T02:46:09.327Z,99.90
2019-04-23T02:49:00.083Z,99.90
2019-04-23T02:51:49.005Z,99.90
2019-04-23T02:56:30.912Z,99.90
2019-04-23T03:03:59.565Z,99.90
2019-04-23T03:06:29.986Z,99.90
2019-04-23T03:11:34.319Z,99.90
2019-04-23T03:14:18.500Z,99.90
2019-04-23T03:16:56.586Z,99.90
2019-04-23T03:19:32.267Z,99.90
2019-04-23T03:25:10.603Z,99.90
2019-04-23T03:30:12.218Z,99.90
2019-04-23T03:32:45.668Z,99.90
2019-04-23T03:42:42.754Z,99.90
2019-04-23T03:55:10.313Z,99.90
2019-04-23T03:57:38.360Z,99.90
2019-04-23T04:00:31.079Z,99.90
2019-04-23T04:05:22.391Z,99.90
2019-04-23T04:08:00.711Z,99.90
2019-04-23T04:10:16.032Z,99.90
2019-04-23T04:12:46.424Z,99.90
2019-04-23T04:15:43.786Z,99.90
2019-04-23T04:20:34.406Z,99.90
2019-04-23T04:25:37.492Z,99.90
2019-04-23T04:33:31.592Z,99.90
2019-04-23T04:35:58.400Z,99.90
2019-04-23T04:38:36.934Z,99.90
2019-04-23T04:41:04.272Z,99.90
2019-04-23T04:43:31.859Z,99.90
2019-04-23T04:48:54.892Z,99.90
2019-04-23T04:51:20.745Z,99.90
2019-04-23T04:56:18.981Z,99.90
2019-04-23T04:58:52.916Z,99.90
2019-04-23T05:01:28.316Z,99.90
2019-04-23T05:03:50.783Z,99.90
2019-04-23T05:06:22.635Z,99.90
2019-04-23T05:08:54.473Z,99.90
2019-04-23T05:11:54.242Z,99.90
2019-04-23T05:14:13.641Z,99.90
2019-04-23T05:16:49.034Z,99.90
2019-04-23T05:21:55.638Z,99.90
2019-04-23T05:26:49.634Z,99.90
2019-04-23T05:29:14.592Z,99.90
2019-04-23T05:31:54.935Z,99.90
2019-04-23T05:34:20.795Z,99.90
2019-04-23T05:39:36.027Z,99.90
2019-04-23T05:41:58.921Z,99.90
2019-04-23T05:44:38.295Z,99.90
2019-04-23T05:47:11.846Z,99.90
2019-04-23T05:49:31.283Z,99.90
2019-04-23T05:54:46.460Z,99.90
2019-04-23T05:57:09.890Z,99.90
2019-04-23T05:59:40.070Z,99.90
2019-04-23T06:02:26.224Z,99.90
2019-04-23T06:04:48.145Z,99.90
2019-04-23T06:09:52.161Z,99.90
2019-04-23T06:12:18.731Z,99.90
2019-04-23T06:14:52.550Z,99.90
2019-04-23T06:17:21.678Z,99.90
2019-04-23T06:19:57.097Z,99.90
2019-04-23T06:22:35.344Z,99.90
2019-04-23T06:25:01.274Z,99.90
2019-04-23T06:29:57.414Z,99.90
2019-04-23T06:32:34.238Z,99.90
2019-04-23T06:35:15.149Z,99.90
2019-04-23T06:37:49.604Z,99.90
2019-04-23T06:40:08.704Z,99.90
2019-04-23T06:42:52.058Z,99.90
2019-04-23T06:45:24.125Z,99.90
2019-04-23T06:47:56.007Z,99.90
2019-04-23T06:50:27.195Z,99.90
2019-04-23T06:52:57.225Z,99.90
2019-04-23T06:58:10.566Z,99.90
2019-04-23T07:00:35.295Z,99.90
2019-04-23T07:03:11.416Z,99.90
2019-04-23T07:06:12.047Z,99.90
2019-04-23T07:08:39.925Z,99.90
2019-04-23T07:11:12.212Z,99.90
2019-04-23T07:13:40.036Z,99.90
2019-04-23T07:16:04.635Z,99.90
2019-04-23T07:18:38.017Z,99.90
2019-04-23T07:21:15.462Z,99.90
2019-04-23T07:23:52.670Z,99.90
2019-04-23T07:26:25.773Z,99.90
2019-04-23T07:31:20.349Z,99.90
2019-04-23T07:33:52.162Z,99.90
2019-04-23T07:36:24.382Z,99.90
2019-04-23T07:41:54.913Z,99.90
2019-04-23T07:44:42.569Z,99.90
2019-04-23T07:50:00.784Z,99.90
2019-04-23T07:52:24.277Z,99.90
2019-04-23T07:54:52.653Z,99.90
2019-04-23T07:57:29.181Z,99.90
2019-04-23T07:59:53.400Z,99.90
2019-04-23T08:02:27.506Z,99.90
2019-04-23T08:05:11.634Z,99.90
2019-04-23T08:07:29.717Z,99.90
2019-04-23T08:10:00.263Z,99.90
2019-04-23T08:12:31.577Z,99.90
2019-04-23T08:15:20.175Z,99.90
2019-04-23T08:17:35.855Z,99.90
2019-04-23T08:20:09.452Z,99.90
2019-04-23T08:22:43.378Z,99.90
2019-04-23T08:25:47.049Z,99.90
2019-04-23T08:28:29.423Z,99.90
2019-04-23T08:30:52.742Z,99.90
2019-04-23T08:33:17.264Z,99.90
2019-04-23T08:35:57.642Z,99.90
2019-04-23T08:38:29.394Z,99.90
2019-04-23T08:41:12.368Z,99.90
2019-04-23T08:43:40.710Z,99.90
2019-04-23T08:46:46.704Z,99.90
2019-04-23T08:49:03.345Z,99.90
2019-04-23T08:51:44.165Z,99.90
2019-04-23T08:54:11.655Z,99.90
2019-04-23T08:56:44.561Z,99.90
2019-04-23T08:59:22.509Z,99.90
2019-04-23T09:01:57.962Z,99.90
2019-04-23T09:04:11.116Z,99.90
2019-04-23T09:06:47.178Z,99.90
2019-04-23T09:09:24.876Z,99.90
2019-04-23T09:14:07.208Z,99.90
2019-04-23T09:16:51.470Z,99.90
2019-04-23T09:19:24.013Z,99.90
2019-04-23T09:22:00.545Z,99.90
2019-04-23T09:24:27.762Z,99.90
2019-04-23T09:27:03.922Z,99.90
2019-04-23T09:29:32.510Z,99.90
2019-04-23T09:32:24.899Z,99.90
2019-04-23T09:37:42.234Z,99.90
2019-04-23T09:40:50.411Z,99.90
2019-04-23T09:43:25.371Z,99.90
2019-04-23T09:46:15.095Z,99.90
2019-04-23T09:48:44.275Z,99.90
2019-04-23T09:53:47.253Z,99.90
2019-04-23T09:56:17.698Z,99.80
2019-04-23T09:58:49.953Z,99.90
2019-04-23T10:01:27.734Z,99.90
2019-04-23T10:03:46.281Z,99.90
2019-04-23T10:06:13.982Z,99.90
2019-04-23T10:08:42.952Z,99.90
2019-04-23T10:11:09.449Z,99.90
2019-04-23T10:13:40.675Z,99.40
2019-04-23T10:16:15.204Z,98.80
2019-04-23T10:18:41.926Z,98.00
2019-04-23T10:21:13.046Z,97.90
2019-04-23T10:23:43.272Z,98.70
2019-04-23T10:26:14.250Z,98.10
2019-04-23T10:28:51.558Z,97.40
2019-04-23T10:31:24.940Z,97.20
2019-04-23T10:33:53.257Z,98.10
2019-04-23T10:36:25.844Z,99.50
2019-04-23T10:39:00.537Z,98.50
2019-04-23T10:41:25.903Z,98.30
2019-04-23T10:44:00.737Z,98.30
2019-04-23T10:47:12.363Z,99.20
2019-04-23T10:50:07.424Z,98.10
2019-04-23T10:52:41.034Z,98.30
2019-04-23T10:55:14.548Z,98.10
2019-04-23T10:57:39.247Z,99.20
2019-04-23T11:00:17.616Z,98.70
2019-04-23T11:02:53.780Z,99.50
2019-04-23T11:05:44.541Z,98.30
2019-04-23T11:08:08.691Z,98.50
2019-04-23T11:10:33.230Z,97.70
2019-04-23T11:13:17.529Z,97.30
2019-04-23T11:16:08.970Z,97.20
2019-04-23T11:18:24.611Z,97.50
2019-04-23T11:20:56.417Z,97.70
2019-04-23T11:23:34.432Z,97.70
2019-04-23T11:28:37.793Z,98.20
2019-04-23T11:31:41.131Z,97.80
2019-04-23T11:39:16.501Z,99.90
2019-04-23T11:44:34.238Z,99.90
2019-04-23T11:47:13.493Z,99.90
2019-04-23T11:49:53.307Z,99.90
2019-04-23T11:52:34.427Z,99.90
2019-04-23T11:55:08.843Z,99.90
2019-04-23T12:00:14.572Z,99.90
2019-04-23T12:03:04.191Z,99.90
2019-04-23T12:06:11.529Z,99.90
2019-04-23T12:09:15.995Z,99.90
2019-04-23T12:12:11.244Z,99.90
2019-04-23T12:15:18.097Z,99.90
2019-04-23T12:17:42.349Z,99.90
2019-04-23T12:20:22.963Z,99.90
2019-04-23T12:25:31.007Z,99.90
2019-04-23T12:27:52.221Z,99.90
2019-04-23T12:33:10.593Z,99.90
2019-04-23T12:35:39.319Z,99.90
2019-04-23T12:43:23.305Z,99.60
2019-04-23T12:45:56.594Z,99.10
2019-04-23T12:48:46.851Z,98.50
2019-04-23T12:51:27.592Z,98.60
2019-04-23T12:53:59.567Z,98.30
2019-04-23T12:56:48.099Z,98.60
2019-04-23T12:59:22.156Z,97.80
2019-04-23T13:02:22.897Z,97.60
2019-04-23T13:04:48.408Z,97.30
2019-04-23T13:07:29.283Z,97.60
2019-04-23T13:10:09.181Z,98.10
2019-04-23T13:20:23.109Z,99.30
2019-04-23T13:23:13.385Z,98.00
2019-04-23T13:28:29.559Z,99.90
2019-04-23T13:31:00.787Z,99.60
2019-04-23T13:33:40.542Z,99.90
2019-04-23T13:38:40.497Z,99.00
2019-04-23T13:43:48.217Z,99.30
2019-04-23T13:46:39.900Z,98.90
2019-04-23T13:49:03.844Z,98.30
2019-04-23T13:51:39.471Z,98.80
2019-04-23T13:54:42.088Z,99.70
2019-04-23T13:57:24.024Z,99.90
2019-04-23T13:59:41.689Z,99.90
2019-04-23T14:02:04.130Z,99.60
2019-04-23T14:05:02.563Z,99.90
2019-04-23T14:07:38.425Z,99.90
2019-04-23T14:10:27.042Z,99.90
2019-04-23T14:13:01.920Z,99.90
2019-04-23T14:18:13.291Z,98.20
2019-04-23T14:20:21.148Z,98.20
2019-04-23T14:23:08.596Z,98.90
2019-04-23T14:25:41.519Z,98.10
2019-04-23T14:28:25.005Z,98.90
2019-04-23T14:30:53.523Z,98.70
2019-04-23T14:33:37.982Z,97.20
2019-04-23T14:36:02.810Z,97.00
2019-04-23T14:38:40.079Z,97.70
2019-04-23T14:43:49.551Z,96.50
2019-04-23T14:46:43.853Z,95.70
2019-04-23T14:51:32.172Z,96.80
2019-04-23T14:54:23.386Z,96.60
2019-04-23T14:56:35.049Z,96.20
2019-04-23T14:59:07.389Z,93.10
2019-04-23T15:01:40.040Z,94.00
2019-04-23T15:04:20.462Z,95.00
2019-04-23T15:12:16.066Z,95.60
2019-04-23T15:14:48.204Z,96.70
2019-04-23T15:17:15.836Z,97.00
2019-04-23T15:19:55.350Z,97.30
2019-04-23T15:22:21.811Z,97.40
2019-04-23T15:25:10.737Z,98.70
2019-04-23T15:28:06.226Z,99.10
2019-04-23T15:29:57.745Z,99.30
2019-04-23T15:32:43.791Z,99.30
2019-04-23T15:43:02.757Z,97.50
2019-04-23T15:45:30.493Z,97.10
2019-04-23T15:48:04.973Z,97.80
2019-04-23T15:50:35.707Z,98.80
2019-04-23T15:53:07.551Z,99.90
2019-04-23T15:55:56.550Z,99.90
2019-04-23T15:58:28.199Z,99.90
2019-04-23T16:01:31.983Z,99.90
2019-04-23T16:03:29.540Z,99.90
2019-04-23T16:05:59.872Z,99.90
2019-04-23T16:14:28.681Z,99.90
2019-04-23T16:16:51.319Z,99.50
2019-04-23T16:19:29.119Z,99.20
2019-04-23T16:22:13.226Z,99.20
2019-04-23T16:25:01.000Z,97.70
2019-04-23T16:27:19.577Z,98.10
2019-04-23T16:38:26.633Z,98.40
2019-04-23T16:40:58.752Z,99.20
2019-04-23T16:43:30.310Z,99.50
2019-04-23T16:46:08.077Z,99.90
2019-04-23T16:48:47.870Z,99.80
2019-04-23T16:54:01.669Z,99.90
2019-04-23T16:56:42.810Z,99.90
2019-04-23T16:59:13.836Z,99.90
2019-04-23T17:01:35.357Z,99.90
2019-04-23T17:04:17.900Z,99.90
2019-04-23T17:06:57.729Z,99.90
2019-04-23T17:09:35.560Z,99.90
2019-04-23T17:12:09.975Z,99.90
2019-04-23T17:14:44.350Z,99.90
2019-04-23T17:17:16.337Z,99.90
2019-04-23T17:19:50.572Z,99.90
2019-04-23T17:22:26.044Z,99.90
2019-04-23T17:25:15.648Z,99.90
2019-04-23T17:30:28.662Z,99.90
2019-04-23T17:33:13.499Z,99.90
2019-04-23T17:41:31.632Z,99.90
2019-04-23T17:46:44.506Z,99.90
2019-04-23T17:49:10.784Z,99.90
2019-04-23T17:51:48.598Z,99.90
2019-04-23T17:54:19.497Z,99.90
2019-04-23T17:57:10.693Z,99.90
2019-04-23T17:59:30.649Z,99.90
2019-04-23T18:02:19.055Z,99.90
2019-04-23T18:04:43.766Z,99.90
2019-04-23T18:07:20.461Z,99.90
2019-04-23T18:12:13.216Z,99.90
2019-04-23T18:14:21.505Z,99.90
2019-04-23T18:17:13.571Z,99.90
2019-04-23T18:20:00.324Z,99.90
2019-04-23T18:22:29.522Z,99.90
2019-04-23T18:25:26.200Z,99.90
2019-04-23T18:27:50.760Z,99.90
2019-04-23T18:30:40.703Z,99.90
2019-04-23T18:33:56.767Z,99.90
2019-04-23T18:35:59.582Z,99.90
2019-04-23T18:38:31.577Z,99.90
2019-04-23T18:46:06.875Z,99.90
2019-04-23T18:51:34.220Z,99.90
2019-04-23T18:53:48.577Z,99.90
2019-04-23T18:56:30.611Z,99.90
2019-04-23T19:02:06.639Z,99.90
2019-04-23T19:05:05.108Z,99.90
2019-04-23T19:07:32.238Z,99.90
2019-04-23T19:13:23.349Z,99.90
2019-04-23T19:15:42.357Z,99.90
2019-04-23T19:18:31.925Z,99.90
2019-04-23T19:23:39.510Z,99.90
2019-04-23T19:26:15.506Z,99.90
2019-04-23T19:29:05.570Z,99.90
2019-04-23T19:31:33.276Z,99.90
2019-04-23T19:34:24.817Z,99.90
2019-04-23T19:36:59.039Z,99.90
2019-04-23T19:42:03.721Z,99.90
2019-04-23T19:44:41.215Z,99.90
2019-04-23T19:47:10.770Z,99.90
2019-04-23T19:49:50.866Z,99.90
2019-04-23T19:52:20.233Z,99.90
2019-04-23T19:57:50.402Z,99.90
2019-04-23T20:00:01.222Z,99.90
2019-04-23T20:03:06.007Z,99.90
2019-04-23T20:05:13.735Z,99.90
2019-04-23T20:07:54.844Z,99.90
2019-04-23T20:10:22.014Z,99.90
2019-04-23T20:15:35.585Z,99.90
2019-04-23T20:17:54.025Z,99.90
2019-04-23T20:20:33.720Z,99.90
2019-04-23T20:23:02.852Z,99.90
2019-04-23T20:26:11.805Z,99.90
2019-04-23T20:28:40.760Z,99.90
2019-04-23T20:31:05.289Z,99.90
2019-04-23T20:36:16.036Z,99.90
2019-04-23T20:43:49.192Z,99.90
2019-04-23T20:46:14.913Z,99.90
2019-04-23T20:51:18.745Z,99.90
2019-04-23T20:53:59.458Z,99.90
2019-04-23T20:56:27.101Z,99.90
2019-04-23T20:58:59.975Z,99.90
2019-04-23T21:01:38.275Z,99.90
2019-04-23T21:04:17.616Z,99.90
2019-04-23T21:06:44.168Z,99.90
2019-04-23T21:11:49.885Z,99.90
2019-04-23T21:14:27.190Z,99.90
2019-04-23T21:16:40.904Z,99.90
2019-04-23T21:19:25.147Z,99.90
2019-04-23T21:22:09.954Z,99.90
2019-04-23T21:24:42.859Z,99.90
2019-04-23T21:27:15.327Z,99.90
2019-04-23T21:29:57.041Z,99.90
2019-04-23T21:32:24.859Z,99.90
2019-04-23T21:34:55.921Z,99.90
2019-04-23T21:37:48.028Z,99.90
2019-04-23T21:40:55.076Z,99.90
2019-04-23T21:45:24.408Z,99.90
2019-04-23T21:48:04.571Z,99.90
2019-04-23T21:50:37.580Z,99.90
2019-04-23T21:55:39.661Z,99.90
2019-04-23T21:58:07.185Z,99.90
2019-04-23T22:00:48.450Z,99.90
2019-04-23T22:03:11.722Z,99.90
2019-04-23T22:05:42.863Z,99.90
2019-04-23T22:11:00.603Z,99.90
2019-04-23T22:13:20.631Z,99.90
2019-04-23T22:16:42.931Z,99.90
2019-04-23T22:18:12.811Z,99.90
2019-04-23T22:20:53.255Z,99.90
2019-04-23T22:23:19.555Z,99.90
2019-04-23T22:25:57.712Z,99.90
2019-04-23T22:28:27.765Z,99.90
2019-04-23T22:31:03.784Z,99.90
2019-04-23T22:33:29.364Z,99.90
2019-04-23T22:36:06.270Z,99.90
2019-04-23T22:38:25.957Z,99.90
2019-04-23T22:43:24.817Z,99.90
2019-04-23T22:48:46.384Z,99.90
2019-04-23T22:51:21.141Z,99.90
2019-04-23T22:53:46.366Z,99.90
2019-04-23T22:56:13.809Z,99.90
2019-04-23T22:58:52.909Z,99.90
2019-04-23T23:01:27.882Z,99.90
2019-04-23T23:03:58.881Z,99.90
2019-04-23T23:06:29.566Z,99.90
2019-04-23T23:09:13.540Z,99.90
2019-04-23T23:11:24.651Z,99.90
2019-04-23T23:16:28.515Z,99.90
2019-04-23T23:21:43.188Z,99.90
2019-04-23T23:24:06.298Z,99.90
2019-04-23T23:26:40.768Z,99.90
2019-04-23T23:29:05.877Z,99.90
2019-04-23T23:31:43.923Z,99.90
2019-04-23T23:42:03.010Z,99.90
2019-04-23T23:47:00.213Z,99.90
2019-04-23T23:51:50.668Z,99.90
2019-04-23T23:54:20.037Z,99.90
2019-04-23T23:59:42.257Z,99.90
